Time;durP1;ratioP1;P1;durP2;ratioP2;P2;SDS_P1;SDS_P2;PMS_P1;PMS_P2;Temp;Humidity;BMP_temperature;BMP_pressure;BME280_temperature;BME280_humidity;BME280_pressure;Samples;Min_cycle;Max_cycle;Signal;HPM_P1;HPM_P2
2023/05/16 10:29:10;;;;;;;6.05;2.40;;;14.70;99.90;;;;;;5067940;27;20732;-74
2023/05/16 10:31:36;;;;;;;9.25;2.42;;;15.10;99.90;;;;;;5074288;28;20227;-74
2023/05/16 10:34:02;;;;;;;13.45;6.07;;;15.30;99.90;;;;;;5084606;28;20214;-74
2023/05/16 10:36:30;;;;;;;7.20;2.40;;;15.40;99.90;;;;;;5080906;28;20270;-75
2023/05/16 10:38:57;;;;;;;7.28;2.83;;;15.10;99.90;;;;;;5084822;28;20167;-75
2023/05/16 10:41:23;;;;;;;9.57;3.35;;;14.90;99.90;;;;;;5084665;28;20209;-74
2023/05/16 10:43:56;;;;;;;7.82;3.40;;;14.90;99.90;;;;;;5089459;28;20203;-74
2023/05/16 10:46:23;;;;;;;8.07;3.38;;;14.80;99.90;;;;;;5077233;28;20207;-73
2023/05/16 10:48:48;;;;;;;10.70;3.10;;;14.60;99.90;;;;;;5127279;27;20229;-74
2023/05/16 10:51:35;;;;;;;22.02;15.10;;;14.30;99.90;;;;;;5136389;27;20173;-74
2023/05/16 10:54:07;;;;;;;8.57;2.80;;;14.10;99.90;;;;;;5131426;27;20218;-74
2023/05/16 10:56:34;;;;;;;10.00;3.00;;;14.10;99.90;;;;;;5147900;27;20208;-73
2023/05/16 10:58:59;;;;;;;7.50;3.22;;;14.10;99.90;;;;;;5145760;27;20291;-75
2023/05/16 11:01:34;;;;;;;9.77;3.28;;;14.40;99.90;;;;;;5142412;27;20308;-74
2023/05/16 11:04:01;;;;;;;10.48;2.85;;;14.80;99.90;;;;;;5132513;27;20228;-74
2023/05/16 11:06:28;;;;;;;7.72;2.80;;;15.30;99.90;;;;;;5141578;27;20175;-74
2023/05/16 11:09:05;;;;;;;7.43;2.00;;;15.70;99.90;;;;;;5116729;27;20246;-74
2023/05/16 11:11:46;;;;;;;8.43;2.40;;;15.70;99.90;;;;;;5084288;28;62220;-74
2023/05/16 11:14:23;;;;;;;7.40;1.85;;;15.80;99.90;;;;;;5081380;28;20209;-76
2023/05/16 11:16:50;;;;;;;7.60;2.25;;;15.90;99.90;;;;;;5107771;28;20975;-74
2023/05/16 11:19:34;;;;;;;6.70;1.90;;;15.90;99.90;;;;;;5118804;27;20208;-74
2023/05/16 11:22:18;;;;;;;11.32;2.28;;;15.90;99.90;;;;;;5119376;28;20258;-74
2023/05/16 11:24:53;;;;;;;13.68;2.40;;;15.80;99.90;;;;;;5119068;28;20239;-75
2023/05/16 11:27:24;;;;;;;7.40;2.40;;;15.50;99.90;;;;;;5120803;28;20197;-76
2023/05/16 11:29:51;;;;;;;8.20;1.90;;;15.30;99.90;;;;;;5118976;28;20162;-74
2023/05/16 11:32:21;;;;;;;5.30;1.48;;;15.40;99.90;;;;;;5105461;28;20228;-74
2023/05/16 11:34:48;;;;;;;11.43;2.28;;;15.10;99.90;;;;;;5121837;28;20641;-74
2023/05/16 11:37:14;;;;;;;7.63;2.08;;;15.10;99.90;;;;;;5098146;28;20295;-74
2023/05/16 11:39:40;;;;;;;13.27;7.22;;;15.10;99.90;;;;;;5111582;28;20234;-74
2023/05/16 11:42:06;;;;;;;11.48;4.00;;;15.40;99.90;;;;;;5090131;28;20178;-74
2023/05/16 11:44:32;;;;;;;8.48;2.53;;;15.80;99.90;;;;;;5086100;28;20211;-74
2023/05/16 11:46:59;;;;;;;5.57;2.15;;;16.40;99.90;;;;;;5095692;27;20237;-75
2023/05/16 11:49:27;;;;;;;6.38;2.22;;;16.60;99.90;;;;;;5092893;28;20243;-74
2023/05/16 11:51:55;;;;;;;5.32;1.55;;;16.80;99.90;;;;;;5085489;28;20210;-74
2023/05/16 11:54:21;;;;;;;8.50;1.48;;;16.70;99.90;;;;;;5060593;28;20317;-75
2023/05/16 11:56:48;;;;;;;7.93;2.03;;;16.90;99.90;;;;;;5084485;28;62149;-75
2023/05/16 11:59:14;;;;;;;6.32;1.90;;;16.90;99.90;;;;;;5080258;28;85213;-75
2023/05/16 12:01:41;;;;;;;8.38;1.80;;;16.70;99.90;;;;;;5096714;28;20209;-74
2023/05/16 12:04:16;;;;;;;6.82;1.85;;;16.50;99.90;;;;;;5089064;28;20710;-74
2023/05/16 12:06:43;;;;;;;12.25;2.28;;;15.90;99.90;;;;;;5087670;28;20216;-75
2023/05/16 12:09:15;;;;;;;8.07;1.77;;;15.80;99.90;;;;;;5086719;28;20201;-74
2023/05/16 12:11:42;;;;;;;6.05;2.20;;;15.90;99.90;;;;;;5086141;28;20202;-74
2023/05/16 12:14:11;;;;;;;10.15;2.90;;;16.00;99.90;;;;;;5084699;28;20880;-74
2023/05/16 12:16:37;;;;;;;6.72;1.60;;;16.10;99.90;;;;;;5083246;28;20202;-74
2023/05/16 12:19:07;;;;;;;10.80;2.17;;;16.20;99.90;;;;;;5085996;28;20221;-74
2023/05/16 12:21:33;;;;;;;5.53;1.40;;;16.30;99.90;;;;;;5079828;28;20167;-74
2023/05/16 12:23:59;;;;;;;5.43;1.75;;;16.30;99.90;;;;;;5103643;28;20208;-74
2023/05/16 12:26:27;;;;;;;3.60;1.50;;;16.50;99.90;;;;;;5103941;28;20213;-74
2023/05/16 12:28:56;;;;;;;11.48;1.70;;;16.70;99.90;;;;;;5095850;27;20222;-74
2023/05/16 12:31:21;;;;;;;5.43;1.98;;;16.50;99.90;;;;;;5101760;28;20874;-74
2023/05/16 12:33:47;;;;;;;11.13;2.78;;;16.80;99.90;;;;;;5104935;28;20213;-74
2023/05/16 12:36:14;;;;;;;6.78;1.98;;;16.80;99.90;;;;;;5092236;28;20220;-75
2023/05/16 12:38:40;;;;;;;6.35;1.58;;;17.00;99.90;;;;;;5099284;27;20714;-74
2023/05/16 12:41:06;;;;;;;4.30;1.50;;;17.10;99.90;;;;;;5092800;28;20197;-75
2023/05/16 12:43:32;;;;;;;15.05;2.20;;;16.90;99.90;;;;;;5096675;27;20962;-74
2023/05/16 12:45:57;;;;;;;6.35;2.00;;;17.00;99.90;;;;;;5101749;27;20254;-74
2023/05/16 12:48:29;;;;;;;7.32;1.50;;;17.20;99.90;;;;;;5109500;27;20193;-75
2023/05/16 12:50:55;;;;;;;11.00;2.40;;;17.30;99.90;;;;;;5088632;27;20175;-74
2023/05/16 12:53:20;;;;;;;5.60;1.58;;;17.30;99.90;;;;;;5111945;27;20224;-74
2023/05/16 12:55:46;;;;;;;7.13;1.83;;;17.30;99.90;;;;;;5103548;27;20218;-74
2023/05/16 12:58:12;;;;;;;9.85;2.13;;;17.30;99.90;;;;;;5107523;27;20208;-75
2023/05/16 13:00:37;;;;;;;7.63;1.65;;;17.30;99.90;;;;;;5102863;27;20262;-75
2023/05/16 13:03:04;;;;;;;6.45;2.10;;;17.30;99.90;;;;;;5104976;27;20177;-75
2023/05/16 13:05:30;;;;;;;5.25;2.40;;;17.30;99.90;;;;;;5086474;28;20696;-73
2023/05/16 13:07:56;;;;;;;9.60;2.22;;;17.20;99.90;;;;;;5103305;27;20271;-75
2023/05/16 13:10:22;;;;;;;7.13;1.95;;;17.10;99.90;;;;;;5091718;28;20656;-74
2023/05/16 13:12:47;;;;;;;4.18;1.45;;;17.00;99.90;;;;;;5102128;27;20206;-74
2023/05/16 13:15:14;;;;;;;9.77;2.33;;;16.90;99.90;;;;;;5094985;28;20942;-75
2023/05/16 13:17:41;;;;;;;6.60;1.80;;;16.90;99.90;;;;;;5091418;28;20229;-74
2023/05/16 13:20:08;;;;;;;5.60;1.70;;;16.70;99.90;;;;;;5067042;28;20206;-75
2023/05/16 13:22:37;;;;;;;9.00;1.90;;;16.90;99.90;;;;;;5086565;28;20316;-74
2023/05/16 13:25:04;;;;;;;8.90;1.83;;;16.70;99.90;;;;;;5084731;28;20367;-75
2023/05/16 13:27:31;;;;;;;11.32;1.70;;;17.00;99.90;;;;;;5083606;28;20208;-75
2023/05/16 13:29:57;;;;;;;7.85;2.33;;;17.10;99.90;;;;;;5086615;28;20179;-74
2023/05/16 13:32:23;;;;;;;11.35;1.95;;;17.10;99.90;;;;;;5083360;28;20199;-76
2023/05/16 13:34:49;;;;;;;9.50;2.45;;;17.00;99.90;;;;;;5069118;28;20223;-74
2023/05/16 13:37:15;;;;;;;12.20;2.47;;;16.90;99.90;;;;;;5066615;28;20212;-74
2023/05/16 13:39:41;;;;;;;8.60;1.95;;;16.90;99.90;;;;;;5073970;28;20297;-74
2023/05/16 13:42:06;;;;;;;9.30;2.38;;;16.90;99.90;;;;;;5068020;28;20185;-75
2023/05/16 13:44:32;;;;;;;16.33;2.72;;;17.10;99.90;;;;;;5083850;28;20301;-75
2023/05/16 13:46:58;;;;;;;5.28;2.00;;;17.20;99.90;;;;;;5097860;28;20205;-74
2023/05/16 13:49:24;;;;;;;4.90;1.70;;;17.00;99.90;;;;;;5090670;28;20236;-75
2023/05/16 13:51:50;;;;;;;7.82;2.05;;;17.00;99.90;;;;;;5083442;28;20419;-77
2023/05/16 13:54:17;;;;;;;6.75;1.80;;;17.20;99.90;;;;;;5090303;28;20198;-76
2023/05/16 13:56:43;;;;;;;13.18;2.85;;;17.50;99.90;;;;;;5105089;28;20201;-77
2023/05/16 13:59:09;;;;;;;10.25;2.40;;;17.60;99.90;;;;;;5084712;28;20292;-74
2023/05/16 14:01:35;;;;;;;8.50;2.38;;;17.60;99.90;;;;;;5089840;28;20202;-75
2023/05/16 14:04:01;;;;;;;5.65;1.88;;;17.50;99.90;;;;;;5100517;28;20216;-76
2023/05/16 14:06:27;;;;;;;7.30;2.05;;;17.50;99.90;;;;;;5097570;28;20606;-77
2023/05/16 14:08:53;;;;;;;14.15;1.90;;;17.60;99.90;;;;;;5102887;28;20261;-77
2023/05/16 14:11:21;;;;;;;9.75;2.28;;;17.60;99.90;;;;;;5091657;28;20209;-74
2023/05/16 14:13:48;;;;;;;6.18;1.23;;;17.60;99.90;;;;;;5105676;28;20212;-75
2023/05/16 14:16:13;;;;;;;9.32;1.80;;;17.80;99.90;;;;;;5103016;28;20703;-73
2023/05/16 14:18:39;;;;;;;5.82;1.60;;;17.90;99.90;;;;;;5088711;28;20275;-73
2023/05/16 14:21:05;;;;;;;7.28;1.67;;;18.00;99.90;;;;;;5070597;28;20167;-74
2023/05/16 14:25:01;;;;;;;;;;;;;;;;;;;;;
2023/05/16 14:27:09;;;;;;;7.45;1.40;;;18.10;99.90;;;;;;5085702;28;20228;-74
2023/05/16 14:29:35;;;;;;;3.15;1.40;;;18.30;99.90;;;;;;5066874;28;20581;-74
2023/05/16 14:32:01;;;;;;;8.20;1.55;;;18.20;99.90;;;;;;5075777;28;20213;-75
2023/05/16 14:34:26;;;;;;;7.47;2.10;;;18.00;99.90;;;;;;5078336;28;20213;-75
2023/05/16 14:37:04;;;;;;;5.43;1.90;;;17.80;99.90;;;;;;5077271;28;20190;-73
2023/05/16 14:39:53;;;;;;;5.78;1.98;;;17.80;99.90;;;;;;5079093;28;20663;-75
2023/05/16 14:42:20;;;;;;;6.70;2.28;;;17.70;99.90;;;;;;5078750;28;20177;-75
2023/05/16 14:44:45;;;;;;;4.15;1.98;;;17.50;99.90;;;;;;5067389;28;20190;-76
2023/05/16 14:47:11;;;;;;;4.55;1.88;;;17.50;99.90;;;;;;5082921;28;20213;-76
2023/05/16 14:49:37;;;;;;;5.30;1.55;;;17.30;99.90;;;;;;5083796;28;20198;-76
2023/05/16 14:52:03;;;;;;;6.43;1.13;;;17.10;99.90;;;;;;5102989;28;20243;-76
2023/05/16 14:54:28;;;;;;;5.18;1.63;;;17.10;99.90;;;;;;5088292;28;20193;-76
2023/05/16 14:56:54;;;;;;;4.35;1.20;;;17.30;99.90;;;;;;5110456;28;20382;-75
2023/05/16 14:59:20;;;;;;;7.97;2.00;;;17.50;99.90;;;;;;5077806;28;20233;-77
2023/05/16 15:01:45;;;;;;;6.88;1.30;;;17.80;99.90;;;;;;5087833;28;20771;-77
2023/05/16 15:04:11;;;;;;;3.70;2.30;;;18.10;99.90;;;;;;5076863;28;20217;-77
2023/05/16 15:06:37;;;;;;;4.30;1.45;;;18.30;99.90;;;;;;5087201;28;20220;-77
2023/05/16 15:09:02;;;;;;;13.07;1.77;;;18.30;99.90;;;;;;5084229;28;20285;-77
2023/05/16 15:11:28;;;;;;;2.97;1.08;;;18.10;99.90;;;;;;5082187;28;20197;-75
2023/05/16 15:13:55;;;;;;;4.72;1.25;;;18.10;99.90;;;;;;5089689;28;20688;-74
2023/05/16 15:16:21;;;;;;;6.85;1.60;;;17.80;99.90;;;;;;5104854;28;20201;-77
2023/05/16 15:18:47;;;;;;;4.05;1.40;;;17.80;99.90;;;;;;5109978;28;20214;-76
2023/05/16 15:21:12;;;;;;;4.32;1.40;;;17.70;99.90;;;;;;5103986;28;20219;-73
2023/05/16 15:23:38;;;;;;;4.25;1.13;;;17.80;99.90;;;;;;5105392;28;20472;-74
2023/05/16 15:26:03;;;;;;;4.28;1.45;;;17.70;99.90;;;;;;5108435;28;20869;-75
2023/05/16 15:28:29;;;;;;;7.75;3.88;;;17.80;99.90;;;;;;5107594;28;20228;-71
2023/05/16 15:30:55;;;;;;;7.35;1.52;;;18.00;99.90;;;;;;5106597;28;20231;-77
2023/05/16 15:33:20;;;;;;;2.58;1.13;;;18.10;99.90;;;;;;5103917;28;20181;-77
2023/05/16 15:35:47;;;;;;;6.75;1.23;;;18.10;99.90;;;;;;5108802;28;20215;-79
2023/05/16 15:38:12;;;;;;;9.10;1.50;;;17.80;99.90;;;;;;5090285;28;20707;-78
2023/05/16 15:40:38;;;;;;;4.20;1.20;;;18.00;99.90;;;;;;5101204;28;20212;-77
2023/05/16 15:43:04;;;;;;;3.72;1.20;;;17.70;99.90;;;;;;5104090;28;20227;-75
2023/05/16 15:45:29;;;;;;;7.38;1.60;;;17.80;99.90;;;;;;5106781;28;20222;-77
2023/05/16 15:47:55;;;;;;;3.22;1.00;;;17.70;99.90;;;;;;5103776;28;20684;-75
2023/05/16 15:50:21;;;;;;;3.70;1.30;;;17.50;99.90;;;;;;5086174;28;20201;-75
2023/05/16 15:52:47;;;;;;;6.75;1.80;;;17.50;99.90;;;;;;5101410;28;20210;-77
2023/05/16 15:55:12;;;;;;;5.75;1.15;;;17.50;99.90;;;;;;5104361;28;20225;-78
2023/05/16 15:57:39;;;;;;;5.20;1.48;;;17.60;99.90;;;;;;5108130;28;20757;-74
2023/05/16 16:00:05;;;;;;;4.18;1.95;;;17.60;99.90;;;;;;5105163;28;20185;-75
2023/05/16 16:02:31;;;;;;;3.60;1.45;;;17.60;99.90;;;;;;5080873;28;20237;-74
2023/05/16 16:04:56;;;;;;;3.85;1.80;;;17.50;99.90;;;;;;5103208;28;20237;-74
2023/05/16 16:07:23;;;;;;;6.13;1.77;;;17.40;99.90;;;;;;5082442;28;20229;-73
2023/05/16 16:09:49;;;;;;;6.03;1.50;;;17.50;99.90;;;;;;5104624;28;20288;-77
2023/05/16 16:12:14;;;;;;;4.95;2.00;;;17.50;99.90;;;;;;5097112;28;20252;-73
2023/05/16 16:14:40;;;;;;;5.70;1.35;;;17.50;99.90;;;;;;5102600;28;20216;-76
2023/05/16 16:17:06;;;;;;;10.73;1.55;;;17.50;99.90;;;;;;5087120;28;20229;-77
2023/05/16 16:19:31;;;;;;;3.05;1.20;;;17.60;99.90;;;;;;5104573;28;20684;-75
2023/05/16 16:21:57;;;;;;;5.40;1.92;;;17.60;99.90;;;;;;5084701;28;20273;-74
2023/05/16 16:24:22;;;;;;;4.18;1.05;;;17.70;99.90;;;;;;5097753;28;20702;-73
2023/05/16 16:26:48;;;;;;;5.90;1.20;;;17.70;99.90;;;;;;5103685;28;20198;-74
2023/05/16 16:29:14;;;;;;;4.85;1.45;;;17.70;99.90;;;;;;5101928;28;20307;-77
2023/05/16 16:31:41;;;;;;;7.88;1.40;;;17.70;99.90;;;;;;5099429;28;20206;-73
2023/05/16 16:34:06;;;;;;;3.58;1.38;;;17.70;99.90;;;;;;5102913;28;20216;-75
2023/05/16 16:36:32;;;;;;;3.17;1.30;;;17.50;99.90;;;;;;5106745;28;20174;-79
2023/05/16 16:38:58;;;;;;;3.33;1.05;;;17.50;99.90;;;;;;5104215;28;20543;-76
2023/05/16 16:41:24;;;;;;;9.93;3.60;;;17.60;99.90;;;;;;5087588;28;20879;-75
2023/05/16 16:43:49;;;;;;;3.17;1.40;;;17.70;99.90;;;;;;5098914;28;20221;-74
2023/05/16 16:46:15;;;;;;;3.63;1.20;;;17.60;99.90;;;;;;5081678;28;20221;-76
2023/05/16 16:48:40;;;;;;;3.47;1.00;;;17.50;99.90;;;;;;5102648;28;20221;-73
2023/05/16 16:51:06;;;;;;;4.10;1.20;;;17.40;99.90;;;;;;5082427;28;20174;-74
2023/05/16 16:53:32;;;;;;;5.53;1.58;;;17.30;99.90;;;;;;5086761;28;20213;-74
2023/05/16 16:55:57;;;;;;;5.78;1.20;;;17.20;99.90;;;;;;5104315;28;20228;-74
2023/05/16 16:58:23;;;;;;;1.60;0.80;;;17.30;99.90;;;;;;5102995;28;20210;-74
2023/05/16 17:00:48;;;;;;;3.15;1.10;;;17.20;99.90;;;;;;5101627;28;20198;-78
2023/05/16 17:03:14;;;;;;;5.28;1.20;;;17.10;99.90;;;;;;5099788;28;20679;-76
2023/05/16 17:05:41;;;;;;;3.83;1.17;;;17.10;99.90;;;;;;5101354;28;20217;-73
2023/05/16 17:08:07;;;;;;;2.90;0.95;;;17.00;99.60;;;;;;5083006;27;20274;-77
2023/05/16 17:10:33;;;;;;;3.38;1.00;;;17.00;99.20;;;;;;5100319;28;20732;-77
2023/05/16 17:13:05;;;;;;;7.55;1.25;;;16.90;98.70;;;;;;5104939;28;20213;-79
2023/05/16 17:15:31;;;;;;;6.78;1.00;;;16.80;98.90;;;;;;5108262;28;20200;-74
2023/05/16 17:17:57;;;;;;;5.35;1.02;;;16.60;99.50;;;;;;5105636;28;20186;-74
2023/05/16 17:20:25;;;;;;;8.73;1.20;;;16.60;99.90;;;;;;5105827;28;20205;-76
2023/05/16 17:22:51;;;;;;;6.40;1.67;;;16.70;99.90;;;;;;5102316;28;20213;-75
2023/05/16 17:25:17;;;;;;;2.97;1.33;;;16.60;99.90;;;;;;5101054;28;20502;-75
2023/05/16 17:27:43;;;;;;;5.40;1.02;;;16.50;99.90;;;;;;5098685;28;20739;-75
2023/05/16 17:30:09;;;;;;;4.82;1.15;;;16.40;99.90;;;;;;5098064;28;20257;-74
2023/05/16 17:32:35;;;;;;;8.57;2.15;;;16.40;99.90;;;;;;5099367;28;20742;-75
2023/05/16 17:35:02;;;;;;;5.37;1.50;;;16.30;99.90;;;;;;5097849;28;20432;-75
2023/05/16 17:37:28;;;;;;;6.55;1.15;;;16.10;99.90;;;;;;5099880;27;20575;-76
2023/05/16 17:39:54;;;;;;;2.45;1.10;;;16.00;99.90;;;;;;5100022;28;20206;-79
2023/05/16 17:42:20;;;;;;;6.70;1.42;;;16.00;99.90;;;;;;5081083;28;20170;-75
2023/05/16 17:44:46;;;;;;;6.32;1.58;;;15.90;99.90;;;;;;5098300;28;20606;-76
2023/05/16 17:47:12;;;;;;;3.92;1.20;;;15.80;99.90;;;;;;5093591;27;20233;-76
2023/05/16 17:49:38;;;;;;;3.65;1.00;;;15.80;99.90;;;;;;5083117;28;20709;-77
2023/05/16 17:52:04;;;;;;;9.43;1.23;;;15.80;99.90;;;;;;5078134;28;20210;-77
2023/05/16 17:54:30;;;;;;;3.33;1.30;;;15.70;99.90;;;;;;5078496;28;20934;-76
2023/05/16 17:56:57;;;;;;;10.43;2.30;;;15.60;99.90;;;;;;5075749;28;20206;-75
2023/05/16 17:59:23;;;;;;;4.20;1.67;;;15.60;99.90;;;;;;5068001;28;20194;-75
2023/05/16 18:01:49;;;;;;;8.80;1.50;;;15.50;99.90;;;;;;5062982;28;20222;-77
2023/05/16 18:04:14;;;;;;;4.15;1.10;;;15.50;99.90;;;;;;5082619;28;20206;-73
2023/05/16 18:06:40;;;;;;;7.28;1.60;;;15.40;99.90;;;;;;5082872;28;20309;-76
2023/05/16 18:09:09;;;;;;;4.40;1.23;;;15.40;99.90;;;;;;5081940;28;20198;-76
2023/05/16 18:11:39;;;;;;;5.63;1.25;;;15.30;99.90;;;;;;5076319;28;20206;-75
2023/05/16 18:14:07;;;;;;;5.22;1.05;;;15.40;99.90;;;;;;5071768;28;20290;-74
2023/05/16 18:16:33;;;;;;;4.97;1.23;;;15.30;99.90;;;;;;5082102;28;20312;-76
2023/05/16 18:18:58;;;;;;;7.43;1.65;;;15.20;99.90;;;;;;5086355;28;20296;-76
2023/05/16 18:21:24;;;;;;;4.40;0.82;;;15.10;99.90;;;;;;5080566;28;20167;-76
2023/05/16 18:23:50;;;;;;;2.67;1.13;;;15.10;99.90;;;;;;5079158;28;20290;-75
2023/05/16 18:26:16;;;;;;;5.95;1.25;;;15.00;99.90;;;;;;5081633;28;20223;-75
2023/05/16 18:28:42;;;;;;;7.22;1.40;;;15.00;99.90;;;;;;5081287;28;20764;-75
2023/05/16 18:31:08;;;;;;;4.63;1.70;;;14.90;99.90;;;;;;5080337;28;20211;-78
2023/05/16 18:33:34;;;;;;;2.05;1.23;;;14.80;99.90;;;;;;5081476;28;20652;-78
2023/05/16 18:36:00;;;;;;;7.45;2.08;;;14.70;99.90;;;;;;5080774;28;20202;-76
2023/05/16 18:38:25;;;;;;;6.78;1.58;;;14.60;99.90;;;;;;5080314;28;20194;-75
2023/05/16 18:40:51;;;;;;;5.28;1.50;;;14.60;99.90;;;;;;5083031;28;20206;-75
2023/05/16 18:43:17;;;;;;;5.03;1.13;;;14.50;99.90;;;;;;5082643;28;20658;-76
2023/05/16 18:45:43;;;;;;;6.97;1.60;;;14.40;99.90;;;;;;5073881;28;20217;-77
2023/05/16 18:48:08;;;;;;;6.00;1.45;;;14.40;99.90;;;;;;5081193;28;20644;-78
2023/05/16 18:50:34;;;;;;;4.20;1.10;;;14.30;99.90;;;;;;5084942;28;20215;-79
2023/05/16 18:53:00;;;;;;;5.32;1.10;;;14.20;99.90;;;;;;5084705;28;20252;-76
2023/05/16 18:55:26;;;;;;;6.20;1.20;;;14.20;99.90;;;;;;5084794;28;20216;-78
2023/05/16 18:57:51;;;;;;;4.18;1.40;;;14.20;99.90;;;;;;5084818;28;20210;-77
2023/05/16 19:00:18;;;;;;;7.55;1.30;;;14.10;99.90;;;;;;5082002;28;20186;-77
2023/05/16 19:02:45;;;;;;;5.60;1.52;;;14.10;99.90;;;;;;5082176;28;20640;-78
2023/05/16 19:05:12;;;;;;;4.28;1.23;;;14.10;99.90;;;;;;5079156;28;20221;-78
2023/05/16 19:07:38;;;;;;;4.57;2.22;;;13.90;99.90;;;;;;5089007;28;20214;-77
2023/05/16 19:10:04;;;;;;;6.32;1.40;;;14.00;99.90;;;;;;5081581;28;20213;-77
2023/05/16 19:12:30;;;;;;;5.25;1.20;;;14.00;99.90;;;;;;5084676;28;20181;-81
2023/05/16 19:14:56;;;;;;;4.15;1.63;;;13.90;99.90;;;;;;5091729;28;20209;-79
2023/05/16 19:17:22;;;;;;;3.15;0.73;;;13.80;99.90;;;;;;5090547;28;20708;-77
2023/05/16 19:19:48;;;;;;;5.57;1.45;;;13.70;99.90;;;;;;5072319;28;20210;-77
2023/05/16 19:22:13;;;;;;;2.85;1.50;;;13.70;99.90;;;;;;5086531;28;20213;-79
2023/05/16 19:25:16;;;;;;;4.93;1.20;;;13.60;99.90;;;;;;5089343;28;20217;-76
2023/05/16 19:27:42;;;;;;;6.47;1.60;;;13.60;99.90;;;;;;5076023;28;20301;-74
2023/05/16 19:30:08;;;;;;;7.18;1.13;;;13.50;99.90;;;;;;5086557;28;20250;-78
2023/05/16 19:32:33;;;;;;;1.70;0.98;;;13.50;99.90;;;;;;5080264;28;20852;-75
2023/05/16 19:35:00;;;;;;;6.13;1.50;;;13.50;99.90;;;;;;5077950;28;20218;-76
2023/05/16 19:37:25;;;;;;;3.80;1.05;;;13.40;99.90;;;;;;5085593;28;20206;-76
2023/05/16 19:39:51;;;;;;;1.63;1.40;;;13.40;99.90;;;;;;5091142;28;20232;-80
2023/05/16 19:42:16;;;;;;;6.28;1.20;;;13.40;99.90;;;;;;5092441;28;20287;-74
2023/05/16 19:44:42;;;;;;;2.03;0.82;;;13.30;99.90;;;;;;5071009;28;20223;-75
2023/05/16 19:47:08;;;;;;;4.20;1.17;;;13.30;99.90;;;;;;5082531;28;20221;-77
2023/05/16 19:49:33;;;;;;;10.83;1.83;;;13.20;99.90;;;;;;5086836;28;20203;-71
2023/05/16 19:52:00;;;;;;;7.43;1.43;;;13.20;99.90;;;;;;5081279;28;20220;-74
2023/05/16 19:54:28;;;;;;;4.93;1.97;;;13.10;99.90;;;;;;5083252;28;20186;-75
2023/05/16 19:56:54;;;;;;;4.67;1.27;;;13.10;99.90;;;;;;5085454;28;20170;-74
2023/05/16 19:59:21;;;;;;;7.93;4.53;;;13.00;99.90;;;;;;5083126;28;20202;-75
2023/05/16 20:01:46;;;;;;;10.13;6.57;;;13.10;99.90;;;;;;5078308;28;20262;-75
2023/05/16 20:04:12;;;;;;;7.83;4.13;;;13.10;99.90;;;;;;5082477;28;20286;-74
2023/05/16 20:06:38;;;;;;;10.53;4.00;;;13.10;99.90;;;;;;5083556;28;20175;-73
2023/05/16 20:09:04;;;;;;;12.73;6.60;;;13.10;99.90;;;;;;5083514;28;20275;-73
2023/05/16 20:11:30;;;;;;;9.77;2.83;;;13.10;99.90;;;;;;5080152;28;20729;-74
2023/05/16 20:13:58;;;;;;;11.70;2.63;;;13.10;99.90;;;;;;5077488;28;20287;-72
2023/05/16 20:16:25;;;;;;;7.37;3.77;;;13.10;99.90;;;;;;5081729;28;20674;-72
2023/05/16 20:18:51;;;;;;;6.07;2.43;;;13.10;99.90;;;;;;5087279;28;20308;-72
2023/05/16 20:21:17;;;;;;;4.50;1.53;;;13.00;99.90;;;;;;5084818;28;20676;-72
2023/05/16 20:23:42;;;;;;;7.20;2.20;;;13.00;99.90;;;;;;5082084;28;20202;-72
2023/05/16 20:26:08;;;;;;;5.77;2.57;;;12.90;99.90;;;;;;5080301;28;20692;-72
2023/05/16 20:28:33;;;;;;;4.67;1.73;;;12.90;99.90;;;;;;5081382;28;20234;-72
2023/05/16 20:30:59;;;;;;;3.57;1.50;;;12.80;99.90;;;;;;5079074;28;20211;-72
2023/05/16 20:33:25;;;;;;;3.53;1.30;;;12.80;99.90;;;;;;5085623;28;20660;-72
2023/05/16 20:35:51;;;;;;;6.33;1.80;;;12.80;99.90;;;;;;5082397;28;20199;-72
2023/05/16 20:38:16;;;;;;;4.43;1.70;;;12.70;99.90;;;;;;5077932;28;20234;-73
2023/05/16 20:40:42;;;;;;;7.20;2.13;;;12.70;99.90;;;;;;5075679;28;20203;-74
2023/05/16 20:43:07;;;;;;;3.90;1.30;;;12.70;99.90;;;;;;5076802;28;20213;-73
2023/05/16 20:45:33;;;;;;;7.03;1.73;;;12.70;99.90;;;;;;5078303;28;20218;-74
2023/05/16 20:47:59;;;;;;;3.70;1.73;;;12.60;99.90;;;;;;5080279;28;20200;-74
2023/05/16 20:50:24;;;;;;;6.07;1.53;;;12.60;99.90;;;;;;5073318;28;20321;-73
2023/05/16 20:52:50;;;;;;;4.83;1.73;;;12.70;99.90;;;;;;5080408;28;20202;-72
2023/05/16 20:55:15;;;;;;;3.03;1.50;;;12.50;99.90;;;;;;5080395;28;20206;-73
2023/05/16 20:57:41;;;;;;;7.20;1.50;;;12.50;99.90;;;;;;5076365;28;20213;-73
2023/05/16 21:00:07;;;;;;;6.30;1.53;;;12.50;99.90;;;;;;5078531;28;20170;-72
2023/05/16 21:02:33;;;;;;;4.53;1.03;;;12.60;99.90;;;;;;5077395;28;20206;-72
2023/05/16 21:04:58;;;;;;;2.20;0.93;;;12.60;99.90;;;;;;5080363;28;20229;-74
2023/05/16 21:07:25;;;;;;;6.17;2.60;;;12.50;99.90;;;;;;5081346;28;20218;-74
2023/05/16 21:09:50;;;;;;;6.63;2.03;;;12.50;99.90;;;;;;5075066;28;20215;-72
2023/05/16 21:12:16;;;;;;;4.50;1.57;;;12.50;99.90;;;;;;5078738;28;20167;-72
2023/05/16 21:14:42;;;;;;;2.93;1.07;;;12.40;99.90;;;;;;5079588;28;20230;-72
2023/05/16 21:17:08;;;;;;;2.93;1.77;;;12.40;99.90;;;;;;5076536;28;20203;-71
2023/05/16 21:19:34;;;;;;;4.93;1.60;;;12.30;99.90;;;;;;5078493;28;20206;-72
2023/05/16 21:22:02;;;;;;;3.30;1.40;;;12.30;99.90;;;;;;5073328;28;20210;-72
2023/05/16 21:24:28;;;;;;;5.97;1.67;;;12.40;99.90;;;;;;5075997;28;20602;-73
2023/05/16 21:26:55;;;;;;;3.67;1.30;;;12.40;99.90;;;;;;5078413;28;20171;-73
2023/05/16 21:29:20;;;;;;;4.37;0.93;;;12.30;99.90;;;;;;5076631;28;20256;-73
2023/05/16 21:31:46;;;;;;;6.97;1.77;;;12.30;99.90;;;;;;5073157;28;20498;-73
2023/05/16 21:34:11;;;;;;;2.93;1.47;;;12.20;99.90;;;;;;5082069;28;20832;-75
2023/05/16 21:36:37;;;;;;;5.20;1.33;;;12.30;99.90;;;;;;5081385;28;20181;-74
2023/05/16 21:39:03;;;;;;;4.03;1.40;;;12.20;99.90;;;;;;5079995;28;20203;-72
2023/05/16 21:41:28;;;;;;;4.50;1.30;;;12.10;99.90;;;;;;5082155;28;20233;-74
2023/05/16 21:43:54;;;;;;;7.57;1.47;;;12.00;99.90;;;;;;5072434;28;20198;-74
2023/05/16 21:46:20;;;;;;;4.80;1.37;;;12.10;99.90;;;;;;5091252;28;20198;-73
2023/05/16 21:48:45;;;;;;;4.13;0.87;;;12.20;99.90;;;;;;5091435;28;20248;-76
2023/05/16 21:51:11;;;;;;;7.30;1.20;;;12.10;99.90;;;;;;5092529;28;20182;-75
2023/05/16 21:53:37;;;;;;;2.70;1.60;;;12.00;99.90;;;;;;5103607;28;20224;-75
2023/05/16 21:56:04;;;;;;;4.63;1.20;;;12.00;99.90;;;;;;5100820;28;20295;-75
2023/05/16 21:58:29;;;;;;;4.07;1.20;;;12.00;99.90;;;;;;5104837;28;20214;-75
2023/05/16 22:00:55;;;;;;;2.90;0.93;;;12.00;99.90;;;;;;5107993;28;20216;-74
2023/05/16 22:03:21;;;;;;;5.80;1.30;;;12.00;99.90;;;;;;5103706;28;20182;-74
2023/05/16 22:05:47;;;;;;;4.67;1.10;;;11.80;99.90;;;;;;5100726;28;20200;-76
2023/05/16 22:08:12;;;;;;;7.20;1.90;;;11.80;99.90;;;;;;5099793;28;20218;-76
2023/05/16 22:10:38;;;;;;;2.47;1.20;;;11.70;99.90;;;;;;5091805;28;20242;-78
2023/05/16 22:13:03;;;;;;;3.33;1.03;;;11.70;99.90;;;;;;5098149;28;20202;-77
2023/05/16 22:15:29;;;;;;;4.60;1.23;;;11.60;99.90;;;;;;5107677;28;20198;-74
2023/05/16 22:17:56;;;;;;;4.00;2.10;;;11.60;99.90;;;;;;5103938;28;20177;-75
2023/05/16 22:20:22;;;;;;;6.33;2.00;;;11.80;99.90;;;;;;5103495;28;20236;-75
2023/05/16 22:22:49;;;;;;;8.33;1.50;;;11.70;99.90;;;;;;5100281;28;20241;-76
2023/05/16 22:25:15;;;;;;;3.83;1.57;;;11.60;99.90;;;;;;5087169;28;20224;-77
2023/05/16 22:27:41;;;;;;;2.73;1.43;;;11.60;99.90;;;;;;5100727;28;20229;-74
2023/05/16 22:30:07;;;;;;;6.20;1.53;;;11.70;99.90;;;;;;5089062;28;20200;-76
2023/05/16 22:32:33;;;;;;;4.93;1.37;;;11.60;99.90;;;;;;5104676;28;20212;-75
2023/05/16 22:34:58;;;;;;;4.23;1.10;;;11.60;99.90;;;;;;5102383;28;20288;-75
2023/05/16 22:37:25;;;;;;;4.17;1.27;;;11.60;99.90;;;;;;5104764;28;20293;-77
2023/05/16 22:39:52;;;;;;;4.37;1.30;;;11.60;99.90;;;;;;5087840;28;20206;-76
2023/05/16 22:42:17;;;;;;;3.87;1.33;;;11.60;99.90;;;;;;5100930;28;20193;-75
2023/05/16 22:44:43;;;;;;;5.77;1.30;;;11.50;99.90;;;;;;5096629;28;20245;-74
2023/05/16 22:47:09;;;;;;;6.83;1.30;;;11.50;99.90;;;;;;5091270;28;20296;-77
2023/05/16 22:49:35;;;;;;;6.50;1.40;;;11.40;99.90;;;;;;5094451;28;20201;-76
2023/05/16 22:52:00;;;;;;;4.73;1.50;;;11.30;99.90;;;;;;5104431;28;20255;-75
2023/05/16 22:54:26;;;;;;;5.77;1.90;;;11.30;99.90;;;;;;5107674;28;20241;-76
2023/05/16 22:56:52;;;;;;;6.17;1.23;;;11.30;99.90;;;;;;5103037;28;20185;-75
2023/05/16 22:59:17;;;;;;;4.27;1.53;;;11.40;99.90;;;;;;5100624;28;20297;-74
2023/05/16 23:01:43;;;;;;;6.47;1.77;;;11.30;99.90;;;;;;5098907;28;20225;-74
2023/05/16 23:04:08;;;;;;;7.57;2.50;;;11.30;99.90;;;;;;5103706;28;20210;-74
2023/05/16 23:06:34;;;;;;;2.60;1.20;;;11.30;99.90;;;;;;5097286;28;20174;-74
2023/05/16 23:09:01;;;;;;;6.90;1.10;;;11.20;99.90;;;;;;5101293;28;20680;-78
2023/05/16 23:11:26;;;;;;;6.03;1.30;;;11.20;99.90;;;;;;5104377;28;20195;-77
2023/05/16 23:13:52;;;;;;;5.07;1.30;;;11.20;99.90;;;;;;5081419;28;20203;-77